sensor_id;sensor_type;location;lat;lon;timestamp;P1;durP1;ratioP1;P2;durP2;ratioP2
3953;SDS011;1991;48.682;9.030;2022-08-19T00:01:42;14.95;;;13.38;;
3953;SDS011;1991;48.682;9.030;2022-08-19T00:04:10;15.00;;;13.38;;
3953;SDS011;1991;48.682;9.030;2022-08-19T00:06:38;16.30;;;13.77;;
3953;SDS011;1991;48.682;9.030;2022-08-19T00:09:05;15.82;;;14.23;;
3953;SDS011;1991;48.682;9.030;2022-08-19T00:11:32;15.02;;;13.32;;
3953;SDS011;1991;48.682;9.030;2022-08-19T00:14:02;17.35;;;15.10;;
3953;SDS011;1991;48.682;9.030;2022-08-19T00:16:29;18.48;;;14.90;;
3953;SDS011;1991;48.682;9.030;2022-08-19T00:18:55;15.63;;;13.93;;
3953;SDS011;1991;48.682;9.030;2022-08-19T00:21:21;16.13;;;14.45;;
3953;SDS011;1991;48.682;9.030;2022-08-19T00:23:51;16.48;;;14.63;;
3953;SDS011;1991;48.682;9.030;2022-08-19T00:26:18;16.17;;;14.45;;
3953;SDS011;1991;48.682;9.030;2022-08-19T00:28:44;15.50;;;13.90;;
3953;SDS011;1991;48.682;9.030;2022-08-19T00:31:11;18.42;;;14.20;;
3953;SDS011;1991;48.682;9.030;2022-08-19T00:33:36;16.23;;;14.50;;
3953;SDS011;1991;48.682;9.030;2022-08-19T00:36:04;15.82;;;14.23;;
3953;SDS011;1991;48.682;9.030;2022-08-19T00:38:32;16.70;;;14.98;;
3953;SDS011;1991;48.682;9.030;2022-08-19T00:40:59;17.27;;;14.93;;
3953;SDS011;1991;48.682;9.030;2022-08-19T00:43:25;18.20;;;15.73;;
3953;SDS011;1991;48.682;9.030;2022-08-19T00:45:52;19.55;;;15.13;;
3953;SDS011;1991;48.682;9.030;2022-08-19T00:48:19;18.60;;;16.20;;
3953;SDS011;1991;48.682;9.030;2022-08-19T00:50:46;18.60;;;15.30;;
3953;SDS011;1991;48.682;9.030;2022-08-19T00:53:14;17.48;;;15.68;;
3953;SDS011;1991;48.682;9.030;2022-08-19T00:55:47;18.83;;;14.70;;
3953;SDS011;1991;48.682;9.030;2022-08-19T00:58:17;16.88;;;15.18;;
3953;SDS011;1991;48.682;9.030;2022-08-19T01:00:49;19.38;;;15.98;;
3953;SDS011;1991;48.682;9.030;2022-08-19T01:03:16;18.65;;;15.38;;
3953;SDS011;1991;48.682;9.030;2022-08-19T01:05:44;17.98;;;16.08;;
3953;SDS011;1991;48.682;9.030;2022-08-19T01:08:11;17.88;;;16.05;;
3953;SDS011;1991;48.682;9.030;2022-08-19T01:10:39;18.02;;;16.23;;
3953;SDS011;1991;48.682;9.030;2022-08-19T01:13:08;17.65;;;15.85;;
3953;SDS011;1991;48.682;9.030;2022-08-19T01:15:45;19.75;;;17.40;;
3953;SDS011;1991;48.682;9.030;2022-08-19T01:18:14;18.25;;;16.35;;
3953;SDS011;1991;48.682;9.030;2022-08-19T01:20:43;18.98;;;16.98;;
3953;SDS011;1991;48.682;9.030;2022-08-19T01:23:09;19.52;;;16.65;;
3953;SDS011;1991;48.682;9.030;2022-08-19T01:25:38;21.45;;;18.10;;
3953;SDS011;1991;48.682;9.030;2022-08-19T01:28:19;19.35;;;15.95;;
3953;SDS011;1991;48.682;9.030;2022-08-19T01:30:47;19.00;;;16.98;;
3953;SDS011;1991;48.682;9.030;2022-08-19T01:33:13;19.58;;;16.77;;
3953;SDS011;1991;48.682;9.030;2022-08-19T01:35:39;19.35;;;16.90;;
3953;SDS011;1991;48.682;9.030;2022-08-19T01:38:07;20.73;;;17.42;;
3953;SDS011;1991;48.682;9.030;2022-08-19T01:40:35;22.35;;;17.58;;
3953;SDS011;1991;48.682;9.030;2022-08-19T01:43:04;19.83;;;17.80;;
3953;SDS011;1991;48.682;9.030;2022-08-19T01:45:31;19.00;;;17.05;;
3953;SDS011;1991;48.682;9.030;2022-08-19T01:47:58;20.67;;;17.02;;
3953;SDS011;1991;48.682;9.030;2022-08-19T01:50:24;20.02;;;17.90;;
3953;SDS011;1991;48.682;9.030;2022-08-19T01:52:50;21.10;;;18.83;;
3953;SDS011;1991;48.682;9.030;2022-08-19T01:55:18;20.38;;;18.30;;
3953;SDS011;1991;48.682;9.030;2022-08-19T01:57:46;21.02;;;18.85;;
3953;SDS011;1991;48.682;9.030;2022-08-19T02:00:16;23.40;;;19.38;;
3953;SDS011;1991;48.682;9.030;2022-08-19T02:02:44;21.90;;;18.73;;
3953;SDS011;1991;48.682;9.030;2022-08-19T02:05:10;25.50;;;19.45;;
3953;SDS011;1991;48.682;9.030;2022-08-19T02:07:38;21.17;;;18.77;;
3953;SDS011;1991;48.682;9.030;2022-08-19T02:10:05;25.65;;;19.60;;
3953;SDS011;1991;48.682;9.030;2022-08-19T02:12:33;19.88;;;17.73;;
3953;SDS011;1991;48.682;9.030;2022-08-19T02:14:58;23.85;;;19.50;;
3953;SDS011;1991;48.682;9.030;2022-08-19T02:17:26;20.60;;;18.42;;
3953;SDS011;1991;48.682;9.030;2022-08-19T02:19:53;21.10;;;18.50;;
3953;SDS011;1991;48.682;9.030;2022-08-19T02:22:20;22.33;;;19.70;;
3953;SDS011;1991;48.682;9.030;2022-08-19T02:24:45;20.92;;;18.58;;
3953;SDS011;1991;48.682;9.030;2022-08-19T02:27:13;24.17;;;19.63;;
3953;SDS011;1991;48.682;9.030;2022-08-19T02:29:39;20.58;;;17.88;;
3953;SDS011;1991;48.682;9.030;2022-08-19T02:32:05;21.08;;;18.88;;
3953;SDS011;1991;48.682;9.030;2022-08-19T02:34:31;21.98;;;19.67;;
3953;SDS011;1991;48.682;9.030;2022-08-19T02:36:57;23.63;;;19.13;;
3953;SDS011;1991;48.682;9.030;2022-08-19T02:39:22;20.80;;;18.38;;
3953;SDS011;1991;48.682;9.030;2022-08-19T02:41:48;22.33;;;19.92;;
3953;SDS011;1991;48.682;9.030;2022-08-19T02:44:14;23.45;;;20.02;;
3953;SDS011;1991;48.682;9.030;2022-08-19T02:46:40;23.00;;;19.02;;
3953;SDS011;1991;48.682;9.030;2022-08-19T02:49:07;23.20;;;19.27;;
3953;SDS011;1991;48.682;9.030;2022-08-19T02:51:37;22.08;;;19.08;;
3953;SDS011;1991;48.682;9.030;2022-08-19T02:54:05;22.80;;;19.35;;
3953;SDS011;1991;48.682;9.030;2022-08-19T02:56:34;23.90;;;20.48;;
3953;SDS011;1991;48.682;9.030;2022-08-19T02:59:01;23.17;;;19.98;;
3953;SDS011;1991;48.682;9.030;2022-08-19T03:01:31;22.55;;;19.75;;
3953;SDS011;1991;48.682;9.030;2022-08-19T03:03:58;22.15;;;19.65;;
3953;SDS011;1991;48.682;9.030;2022-08-19T03:06:25;23.45;;;20.95;;
3953;SDS011;1991;48.682;9.030;2022-08-19T03:08:52;23.15;;;20.45;;
3953;SDS011;1991;48.682;9.030;2022-08-19T03:11:20;23.67;;;20.77;;
3953;SDS011;1991;48.682;9.030;2022-08-19T03:13:47;25.30;;;22.10;;
3953;SDS011;1991;48.682;9.030;2022-08-19T03:16:20;23.55;;;21.13;;
3953;SDS011;1991;48.682;9.030;2022-08-19T03:18:47;25.73;;;22.63;;
3953;SDS011;1991;48.682;9.030;2022-08-19T03:21:17;23.83;;;21.23;;
3953;SDS011;1991;48.682;9.030;2022-08-19T03:23:47;26.42;;;21.42;;
3953;SDS011;1991;48.682;9.030;2022-08-19T03:26:12;24.98;;;21.48;;
3953;SDS011;1991;48.682;9.030;2022-08-19T03:28:43;25.42;;;20.48;;
3953;SDS011;1991;48.682;9.030;2022-08-19T03:31:11;23.73;;;21.23;;
3953;SDS011;1991;48.682;9.030;2022-08-19T03:33:39;23.75;;;21.27;;
3953;SDS011;1991;48.682;9.030;2022-08-19T03:38:43;26.27;;;21.77;;
3953;SDS011;1991;48.682;9.030;2022-08-19T03:41:13;25.38;;;22.67;;
3953;SDS011;1991;48.682;9.030;2022-08-19T03:43:42;24.67;;;22.10;;
3953;SDS011;1991;48.682;9.030;2022-08-19T03:46:10;26.10;;;23.30;;
3953;SDS011;1991;48.682;9.030;2022-08-19T03:48:38;24.40;;;21.67;;
3953;SDS011;1991;48.682;9.030;2022-08-19T03:51:05;25.20;;;22.52;;
3953;SDS011;1991;48.682;9.030;2022-08-19T03:53:33;26.50;;;22.60;;
3953;SDS011;1991;48.682;9.030;2022-08-19T03:55:59;28.67;;;24.20;;
3953;SDS011;1991;48.682;9.030;2022-08-19T03:58:26;24.95;;;22.35;;
3953;SDS011;1991;48.682;9.030;2022-08-19T04:00:54;29.77;;;22.83;;
3953;SDS011;1991;48.682;9.030;2022-08-19T04:03:20;28.08;;;23.15;;
3953;SDS011;1991;48.682;9.030;2022-08-19T04:05:46;26.10;;;23.30;;
3953;SDS011;1991;48.682;9.030;2022-08-19T04:08:12;27.60;;;24.70;;
3953;SDS011;1991;48.682;9.030;2022-08-19T04:10:38;25.30;;;22.63;;
3953;SDS011;1991;48.682;9.030;2022-08-19T04:13:05;27.92;;;23.45;;
3953;SDS011;1991;48.682;9.030;2022-08-19T04:15:32;25.83;;;23.10;;
3953;SDS011;1991;48.682;9.030;2022-08-19T04:18:04;27.42;;;23.70;;
3953;SDS011;1991;48.682;9.030;2022-08-19T04:20:32;27.25;;;24.35;;
3953;SDS011;1991;48.682;9.030;2022-08-19T04:23:03;25.45;;;22.75;;
3953;SDS011;1991;48.682;9.030;2022-08-19T04:25:28;27.42;;;24.02;;
3953;SDS011;1991;48.682;9.030;2022-08-19T04:28:10;25.55;;;22.88;;
3953;SDS011;1991;48.682;9.030;2022-08-19T04:30:41;26.10;;;22.42;;
3953;SDS011;1991;48.682;9.030;2022-08-19T04:33:09;30.17;;;23.17;;
3953;SDS011;1991;48.682;9.030;2022-08-19T04:35:36;26.65;;;22.25;;
3953;SDS011;1991;48.682;9.030;2022-08-19T04:38:03;28.73;;;22.65;;
3953;SDS011;1991;48.682;9.030;2022-08-19T04:40:29;25.52;;;22.88;;
3953;SDS011;1991;48.682;9.030;2022-08-19T04:43:21;27.30;;;24.40;;
3953;SDS011;1991;48.682;9.030;2022-08-19T04:45:46;27.23;;;24.05;;
3953;SDS011;1991;48.682;9.030;2022-08-19T04:48:12;26.58;;;23.45;;
3953;SDS011;1991;48.682;9.030;2022-08-19T04:50:43;27.30;;;24.33;;
3953;SDS011;1991;48.682;9.030;2022-08-19T04:53:09;28.55;;;25.58;;
3953;SDS011;1991;48.682;9.030;2022-08-19T04:55:38;28.98;;;25.98;;
3953;SDS011;1991;48.682;9.030;2022-08-19T04:58:05;30.23;;;24.35;;
3953;SDS011;1991;48.682;9.030;2022-08-19T05:00:31;29.27;;;26.38;;
3953;SDS011;1991;48.682;9.030;2022-08-19T05:02:57;27.42;;;24.48;;
3953;SDS011;1991;48.682;9.030;2022-08-19T05:05:22;27.15;;;24.25;;
3953;SDS011;1991;48.682;9.030;2022-08-19T05:07:48;28.20;;;25.20;;
3953;SDS011;1991;48.682;9.030;2022-08-19T05:10:13;28.55;;;23.73;;
3953;SDS011;1991;48.682;9.030;2022-08-19T05:12:39;28.65;;;24.98;;
3953;SDS011;1991;48.682;9.030;2022-08-19T05:15:05;29.73;;;25.30;;
3953;SDS011;1991;48.682;9.030;2022-08-19T05:17:33;30.98;;;25.50;;
3953;SDS011;1991;48.682;9.030;2022-08-19T05:19:59;35.97;;;26.55;;
3953;SDS011;1991;48.682;9.030;2022-08-19T05:22:44;28.58;;;25.30;;
3953;SDS011;1991;48.682;9.030;2022-08-19T05:25:12;29.60;;;26.13;;
3953;SDS011;1991;48.682;9.030;2022-08-19T05:27:40;29.42;;;24.45;;
3953;SDS011;1991;48.682;9.030;2022-08-19T05:30:07;29.92;;;26.52;;
3953;SDS011;1991;48.682;9.030;2022-08-19T05:32:33;27.17;;;24.20;;
3953;SDS011;1991;48.682;9.030;2022-08-19T05:34:59;26.75;;;23.70;;
3953;SDS011;1991;48.682;9.030;2022-08-19T05:37:27;27.38;;;24.48;;
3953;SDS011;1991;48.682;9.030;2022-08-19T05:42:22;29.92;;;25.15;;
3953;SDS011;1991;48.682;9.030;2022-08-19T05:44:48;29.17;;;23.92;;
3953;SDS011;1991;48.682;9.030;2022-08-19T05:47:15;27.13;;;24.05;;
3953;SDS011;1991;48.682;9.030;2022-08-19T05:49:41;28.30;;;25.25;;
3953;SDS011;1991;48.682;9.030;2022-08-19T05:52:09;28.50;;;24.15;;
3953;SDS011;1991;48.682;9.030;2022-08-19T05:54:37;28.10;;;23.52;;
3953;SDS011;1991;48.682;9.030;2022-08-19T05:57:05;26.48;;;23.65;;
3953;SDS011;1991;48.682;9.030;2022-08-19T05:59:31;28.20;;;23.75;;
3953;SDS011;1991;48.682;9.030;2022-08-19T06:02:00;25.35;;;22.73;;
3953;SDS011;1991;48.682;9.030;2022-08-19T06:04:26;25.30;;;22.60;;
3953;SDS011;1991;48.682;9.030;2022-08-19T06:06:52;26.88;;;23.98;;
3953;SDS011;1991;48.682;9.030;2022-08-19T06:09:19;26.50;;;23.48;;
3953;SDS011;1991;48.682;9.030;2022-08-19T06:11:47;29.20;;;23.63;;
3953;SDS011;1991;48.682;9.030;2022-08-19T06:14:19;25.90;;;21.95;;
3953;SDS011;1991;48.682;9.030;2022-08-19T06:16:47;28.40;;;24.17;;
3953;SDS011;1991;48.682;9.030;2022-08-19T06:19:14;27.55;;;24.00;;
3953;SDS011;1991;48.682;9.030;2022-08-19T06:21:42;26.25;;;21.73;;
3953;SDS011;1991;48.682;9.030;2022-08-19T06:24:10;26.25;;;21.92;;
3953;SDS011;1991;48.682;9.030;2022-08-19T06:26:39;30.05;;;23.92;;
3953;SDS011;1991;48.682;9.030;2022-08-19T06:29:06;26.58;;;23.70;;
3953;SDS011;1991;48.682;9.030;2022-08-19T06:31:34;28.45;;;25.35;;
3953;SDS011;1991;48.682;9.030;2022-08-19T06:34:01;27.23;;;24.42;;
3953;SDS011;1991;48.682;9.030;2022-08-19T06:36:35;28.40;;;25.35;;
3953;SDS011;1991;48.682;9.030;2022-08-19T06:39:04;29.52;;;23.88;;
3953;SDS011;1991;48.682;9.030;2022-08-19T06:41:34;26.17;;;23.45;;
3953;SDS011;1991;48.682;9.030;2022-08-19T06:44:01;26.02;;;22.60;;
3953;SDS011;1991;48.682;9.030;2022-08-19T06:46:28;26.45;;;23.77;;
3953;SDS011;1991;48.682;9.030;2022-08-19T06:48:56;25.45;;;22.73;;
3953;SDS011;1991;48.682;9.030;2022-08-19T06:51:22;25.58;;;22.88;;
3953;SDS011;1991;48.682;9.030;2022-08-19T06:53:49;25.73;;;22.95;;
3953;SDS011;1991;48.682;9.030;2022-08-19T06:56:18;26.63;;;23.85;;
3953;SDS011;1991;48.682;9.030;2022-08-19T06:58:46;25.90;;;23.20;;
3953;SDS011;1991;48.682;9.030;2022-08-19T07:01:11;25.58;;;22.67;;
3953;SDS011;1991;48.682;9.030;2022-08-19T07:03:37;24.85;;;22.33;;
3953;SDS011;1991;48.682;9.030;2022-08-19T07:06:04;25.13;;;22.63;;
3953;SDS011;1991;48.682;9.030;2022-08-19T07:08:33;25.50;;;22.08;;
3953;SDS011;1991;48.682;9.030;2022-08-19T07:11:00;27.80;;;21.15;;
3953;SDS011;1991;48.682;9.030;2022-08-19T07:13:26;24.13;;;21.60;;
3953;SDS011;1991;48.682;9.030;2022-08-19T07:15:51;25.65;;;21.35;;
3953;SDS011;1991;48.682;9.030;2022-08-19T07:18:18;22.05;;;19.83;;
3953;SDS011;1991;48.682;9.030;2022-08-19T07:20:44;23.17;;;20.70;;
3953;SDS011;1991;48.682;9.030;2022-08-19T07:23:11;21.67;;;18.67;;
3953;SDS011;1991;48.682;9.030;2022-08-19T07:25:37;24.92;;;20.63;;
3953;SDS011;1991;48.682;9.030;2022-08-19T07:28:03;25.15;;;21.17;;
3953;SDS011;1991;48.682;9.030;2022-08-19T07:30:29;22.40;;;19.80;;
3953;SDS011;1991;48.682;9.030;2022-08-19T07:32:55;23.30;;;20.23;;
3953;SDS011;1991;48.682;9.030;2022-08-19T07:35:21;23.75;;;20.05;;
3953;SDS011;1991;48.682;9.030;2022-08-19T07:37:48;22.45;;;20.10;;
3953;SDS011;1991;48.682;9.030;2022-08-19T07:40:14;24.85;;;22.25;;
3953;SDS011;1991;48.682;9.030;2022-08-19T07:42:40;22.27;;;19.88;;
3953;SDS011;1991;48.682;9.030;2022-08-19T07:45:07;20.70;;;18.52;;
3953;SDS011;1991;48.682;9.030;2022-08-19T07:47:33;21.80;;;19.50;;
3953;SDS011;1991;48.682;9.030;2022-08-19T07:49:59;20.55;;;18.50;;
3953;SDS011;1991;48.682;9.030;2022-08-19T07:52:25;19.35;;;17.45;;
3953;SDS011;1991;48.682;9.030;2022-08-19T07:54:50;21.42;;;19.08;;
3953;SDS011;1991;48.682;9.030;2022-08-19T07:57:16;23.02;;;19.48;;
3953;SDS011;1991;48.682;9.030;2022-08-19T07:59:42;20.55;;;18.38;;
3953;SDS011;1991;48.682;9.030;2022-08-19T08:02:08;20.40;;;17.90;;
3953;SDS011;1991;48.682;9.030;2022-08-19T08:04:34;20.90;;;18.67;;
3953;SDS011;1991;48.682;9.030;2022-08-19T08:07:18;20.30;;;18.30;;
3953;SDS011;1991;48.682;9.030;2022-08-19T08:10:03;22.67;;;18.65;;
3953;SDS011;1991;48.682;9.030;2022-08-19T08:12:37;20.73;;;18.67;;
3953;SDS011;1991;48.682;9.030;2022-08-19T08:15:10;20.40;;;18.20;;
3953;SDS011;1991;48.682;9.030;2022-08-19T08:17:41;20.10;;;17.90;;
3953;SDS011;1991;48.682;9.030;2022-08-19T08:20:07;22.73;;;18.85;;
3953;SDS011;1991;48.682;9.030;2022-08-19T08:22:33;23.65;;;18.98;;
3953;SDS011;1991;48.682;9.030;2022-08-19T08:25:20;23.35;;;18.80;;
3953;SDS011;1991;48.682;9.030;2022-08-19T08:27:47;22.13;;;19.52;;
3953;SDS011;1991;48.682;9.030;2022-08-19T08:30:21;22.20;;;18.92;;
3953;SDS011;1991;48.682;9.030;2022-08-19T08:32:49;18.83;;;17.02;;
3953;SDS011;1991;48.682;9.030;2022-08-19T08:35:16;24.38;;;19.20;;
3953;SDS011;1991;48.682;9.030;2022-08-19T08:37:44;23.85;;;19.38;;
3953;SDS011;1991;48.682;9.030;2022-08-19T08:40:17;22.27;;;18.48;;
3953;SDS011;1991;48.682;9.030;2022-08-19T08:42:57;23.13;;;18.48;;
3953;SDS011;1991;48.682;9.030;2022-08-19T08:45:30;21.15;;;18.58;;
3953;SDS011;1991;48.682;9.030;2022-08-19T08:48:01;19.80;;;17.55;;
3953;SDS011;1991;48.682;9.030;2022-08-19T08:50:33;19.95;;;16.38;;
3953;SDS011;1991;48.682;9.030;2022-08-19T08:53:03;22.35;;;18.05;;
3953;SDS011;1991;48.682;9.030;2022-08-19T08:55:32;22.85;;;18.40;;
3953;SDS011;1991;48.682;9.030;2022-08-19T08:58:06;21.10;;;17.65;;
3953;SDS011;1991;48.682;9.030;2022-08-19T09:00:42;23.85;;;17.42;;
3953;SDS011;1991;48.682;9.030;2022-08-19T09:03:16;21.38;;;16.88;;
3953;SDS011;1991;48.682;9.030;2022-08-19T09:16:43;17.23;;;15.32;;
3953;SDS011;1991;48.682;9.030;2022-08-19T09:19:09;18.73;;;15.25;;
3953;SDS011;1991;48.682;9.030;2022-08-19T09:21:35;19.33;;;17.42;;
3953;SDS011;1991;48.682;9.030;2022-08-19T09:24:03;18.52;;;16.63;;
3953;SDS011;1991;48.682;9.030;2022-08-19T09:26:31;16.00;;;14.48;;
3953;SDS011;1991;48.682;9.030;2022-08-19T09:28:57;16.52;;;14.68;;
3953;SDS011;1991;48.682;9.030;2022-08-19T09:31:25;20.20;;;15.52;;
3953;SDS011;1991;48.682;9.030;2022-08-19T09:33:52;18.15;;;16.35;;
3953;SDS011;1991;48.682;9.030;2022-08-19T09:36:23;17.30;;;15.50;;
3953;SDS011;1991;48.682;9.030;2022-08-19T09:38:51;18.25;;;16.55;;
3953;SDS011;1991;48.682;9.030;2022-08-19T09:41:18;16.90;;;15.23;;
3953;SDS011;1991;48.682;9.030;2022-08-19T09:43:47;16.33;;;14.43;;
3953;SDS011;1991;48.682;9.030;2022-08-19T09:46:16;16.17;;;14.60;;
3953;SDS011;1991;48.682;9.030;2022-08-19T09:48:44;17.15;;;15.35;;
3953;SDS011;1991;48.682;9.030;2022-08-19T09:51:14;19.98;;;16.08;;
3953;SDS011;1991;48.682;9.030;2022-08-19T09:53:41;16.85;;;14.85;;
3953;SDS011;1991;48.682;9.030;2022-08-19T09:56:08;21.65;;;16.10;;
3953;SDS011;1991;48.682;9.030;2022-08-19T09:58:34;19.08;;;16.42;;
3953;SDS011;1991;48.682;9.030;2022-08-19T10:01:00;17.58;;;14.32;;
3953;SDS011;1991;48.682;9.030;2022-08-19T10:03:28;16.50;;;14.88;;
3953;SDS011;1991;48.682;9.030;2022-08-19T10:05:55;19.15;;;16.15;;
3953;SDS011;1991;48.682;9.030;2022-08-19T10:08:27;14.73;;;13.38;;
3953;SDS011;1991;48.682;9.030;2022-08-19T10:10:56;17.38;;;15.57;;
3953;SDS011;1991;48.682;9.030;2022-08-19T10:13:23;17.92;;;14.95;;
3953;SDS011;1991;48.682;9.030;2022-08-19T10:15:51;20.58;;;15.20;;
3953;SDS011;1991;48.682;9.030;2022-08-19T10:18:19;18.42;;;15.02;;
3953;SDS011;1991;48.682;9.030;2022-08-19T10:20:46;14.80;;;13.38;;
3953;SDS011;1991;48.682;9.030;2022-08-19T10:23:13;17.35;;;14.05;;
3953;SDS011;1991;48.682;9.030;2022-08-19T10:25:40;16.05;;;14.07;;
3953;SDS011;1991;48.682;9.030;2022-08-19T10:28:06;17.02;;;14.32;;
3953;SDS011;1991;48.682;9.030;2022-08-19T10:30:32;15.25;;;13.70;;
3953;SDS011;1991;48.682;9.030;2022-08-19T10:32:58;15.02;;;13.50;;
3953;SDS011;1991;48.682;9.030;2022-08-19T10:35:24;16.23;;;13.95;;
3953;SDS011;1991;48.682;9.030;2022-08-19T10:37:52;14.18;;;12.85;;
3953;SDS011;1991;48.682;9.030;2022-08-19T10:40:18;19.15;;;13.30;;
3953;SDS011;1991;48.682;9.030;2022-08-19T10:42:44;13.05;;;11.73;;
3953;SDS011;1991;48.682;9.030;2022-08-19T10:45:09;13.88;;;11.88;;
3953;SDS011;1991;48.682;9.030;2022-08-19T10:47:35;12.38;;;11.15;;
3953;SDS011;1991;48.682;9.030;2022-08-19T10:50:02;12.35;;;11.05;;
3953;SDS011;1991;48.682;9.030;2022-08-19T10:52:47;12.85;;;11.55;;
3953;SDS011;1991;48.682;9.030;2022-08-19T10:55:14;14.45;;;10.48;;
3953;SDS011;1991;48.682;9.030;2022-08-19T10:57:58;11.18;;;10.07;;
3953;SDS011;1991;48.682;9.030;2022-08-19T11:00:24;10.43;;;9.48;;
3953;SDS011;1991;48.682;9.030;2022-08-19T11:02:50;10.23;;;9.32;;
3953;SDS011;1991;48.682;9.030;2022-08-19T11:05:16;9.82;;;8.93;;
3953;SDS011;1991;48.682;9.030;2022-08-19T11:07:43;9.95;;;9.05;;
3953;SDS011;1991;48.682;9.030;2022-08-19T11:10:10;10.73;;;9.45;;
3953;SDS011;1991;48.682;9.030;2022-08-19T11:12:38;11.77;;;9.98;;
3953;SDS011;1991;48.682;9.030;2022-08-19T11:15:08;9.95;;;8.98;;
3953;SDS011;1991;48.682;9.030;2022-08-19T11:17:36;16.38;;;10.27;;
3953;SDS011;1991;48.682;9.030;2022-08-19T11:20:09;12.07;;;10.27;;
3953;SDS011;1991;48.682;9.030;2022-08-19T11:22:37;12.15;;;9.68;;
3953;SDS011;1991;48.682;9.030;2022-08-19T11:25:03;11.13;;;9.77;;
3953;SDS011;1991;48.682;9.030;2022-08-19T11:27:29;12.57;;;9.95;;
3953;SDS011;1991;48.682;9.030;2022-08-19T11:29:55;10.48;;;9.57;;
3953;SDS011;1991;48.682;9.030;2022-08-19T11:32:21;11.60;;;9.88;;
3953;SDS011;1991;48.682;9.030;2022-08-19T11:34:46;10.20;;;9.20;;
3953;SDS011;1991;48.682;9.030;2022-08-19T11:37:12;11.45;;;10.35;;
3953;SDS011;1991;48.682;9.030;2022-08-19T11:39:38;14.18;;;9.30;;
3953;SDS011;1991;48.682;9.030;2022-08-19T11:42:04;10.68;;;9.38;;
3953;SDS011;1991;48.682;9.030;2022-08-19T11:44:50;13.15;;;10.80;;
3953;SDS011;1991;48.682;9.030;2022-08-19T11:47:16;12.38;;;8.98;;
3953;SDS011;1991;48.682;9.030;2022-08-19T11:49:42;11.85;;;9.50;;
3953;SDS011;1991;48.682;9.030;2022-08-19T11:52:07;12.23;;;8.70;;
3953;SDS011;1991;48.682;9.030;2022-08-19T11:54:34;10.70;;;8.13;;
3953;SDS011;1991;48.682;9.030;2022-08-19T11:57:01;9.77;;;8.90;;
3953;SDS011;1991;48.682;9.030;2022-08-19T11:59:28;10.10;;;8.43;;
3953;SDS011;1991;48.682;9.030;2022-08-19T12:01:54;8.93;;;8.02;;
3953;SDS011;1991;48.682;9.030;2022-08-19T12:04:20;10.48;;;8.18;;
3953;SDS011;1991;48.682;9.030;2022-08-19T12:06:46;11.40;;;7.75;;
3953;SDS011;1991;48.682;9.030;2022-08-19T12:09:12;10.27;;;7.40;;
3953;SDS011;1991;48.682;9.030;2022-08-19T12:11:39;9.13;;;8.20;;
3953;SDS011;1991;48.682;9.030;2022-08-19T12:14:05;8.50;;;7.60;;
3953;SDS011;1991;48.682;9.030;2022-08-19T12:16:33;8.40;;;7.18;;
3953;SDS011;1991;48.682;9.030;2022-08-19T12:18:59;8.57;;;7.18;;
3953;SDS011;1991;48.682;9.030;2022-08-19T12:21:29;8.57;;;6.88;;
3953;SDS011;1991;48.682;9.030;2022-08-19T12:23:57;8.68;;;6.05;;
3953;SDS011;1991;48.682;9.030;2022-08-19T12:26:24;8.40;;;6.78;;
3953;SDS011;1991;48.682;9.030;2022-08-19T12:28:51;9.35;;;6.43;;
3953;SDS011;1991;48.682;9.030;2022-08-19T12:31:17;6.88;;;6.18;;
3953;SDS011;1991;48.682;9.030;2022-08-19T12:33:44;7.45;;;6.18;;
3953;SDS011;1991;48.682;9.030;2022-08-19T12:36:11;10.23;;;6.35;;
3953;SDS011;1991;48.682;9.030;2022-08-19T12:38:39;8.63;;;6.78;;
3953;SDS011;1991;48.682;9.030;2022-08-19T12:41:06;7.90;;;6.38;;
3953;SDS011;1991;48.682;9.030;2022-08-19T12:43:35;6.15;;;5.47;;
3953;SDS011;1991;48.682;9.030;2022-08-19T12:46:03;6.78;;;5.60;;
3953;SDS011;1991;48.682;9.030;2022-08-19T12:48:32;9.10;;;6.30;;
3953;SDS011;1991;48.682;9.030;2022-08-19T12:50:58;6.47;;;5.72;;
3953;SDS011;1991;48.682;9.030;2022-08-19T12:53:24;6.30;;;5.70;;
3953;SDS011;1991;48.682;9.030;2022-08-19T12:55:56;7.03;;;6.32;;
3953;SDS011;1991;48.682;9.030;2022-08-19T12:58:22;7.63;;;5.25;;
3953;SDS011;1991;48.682;9.030;2022-08-19T13:00:48;7.00;;;6.40;;
3953;SDS011;1991;48.682;9.030;2022-08-19T13:03:14;6.35;;;5.47;;
3953;SDS011;1991;48.682;9.030;2022-08-19T13:05:40;7.15;;;6.00;;
3953;SDS011;1991;48.682;9.030;2022-08-19T13:08:06;6.97;;;5.93;;
3953;SDS011;1991;48.682;9.030;2022-08-19T13:10:32;8.35;;;6.10;;
3953;SDS011;1991;48.682;9.030;2022-08-19T13:13:00;6.78;;;6.18;;
3953;SDS011;1991;48.682;9.030;2022-08-19T13:15:28;6.88;;;5.88;;
3953;SDS011;1991;48.682;9.030;2022-08-19T13:17:56;7.75;;;5.53;;
3953;SDS011;1991;48.682;9.030;2022-08-19T13:20:23;6.38;;;5.78;;
3953;SDS011;1991;48.682;9.030;2022-08-19T13:22:48;7.47;;;5.88;;
3953;SDS011;1991;48.682;9.030;2022-08-19T13:25:14;5.88;;;5.38;;
3953;SDS011;1991;48.682;9.030;2022-08-19T13:27:42;5.90;;;5.32;;
3953;SDS011;1991;48.682;9.030;2022-08-19T13:30:09;6.75;;;6.15;;
3953;SDS011;1991;48.682;9.030;2022-08-19T13:32:54;6.65;;;5.82;;
3953;SDS011;1991;48.682;9.030;2022-08-19T13:35:35;7.00;;;6.28;;
3953;SDS011;1991;48.682;9.030;2022-08-19T13:38:02;6.40;;;5.65;;
3953;SDS011;1991;48.682;9.030;2022-08-19T13:40:30;6.75;;;5.30;;
3953;SDS011;1991;48.682;9.030;2022-08-19T13:42:56;6.18;;;5.68;;
3953;SDS011;1991;48.682;9.030;2022-08-19T13:45:23;6.15;;;5.25;;
3953;SDS011;1991;48.682;9.030;2022-08-19T13:47:50;5.95;;;5.43;;
3953;SDS011;1991;48.682;9.030;2022-08-19T13:50:18;7.40;;;5.80;;
3953;SDS011;1991;48.682;9.030;2022-08-19T13:52:47;6.20;;;5.45;;
3953;SDS011;1991;48.682;9.030;2022-08-19T13:55:13;11.63;;;6.70;;
3953;SDS011;1991;48.682;9.030;2022-08-19T13:57:40;10.65;;;7.43;;
3953;SDS011;1991;48.682;9.030;2022-08-19T14:00:08;7.75;;;6.93;;
3953;SDS011;1991;48.682;9.030;2022-08-19T14:02:37;7.85;;;7.07;;
3953;SDS011;1991;48.682;9.030;2022-08-19T14:05:04;7.38;;;6.68;;
3953;SDS011;1991;48.682;9.030;2022-08-19T14:07:31;9.82;;;7.25;;
3953;SDS011;1991;48.682;9.030;2022-08-19T14:09:57;7.78;;;7.18;;
3953;SDS011;1991;48.682;9.030;2022-08-19T14:12:23;7.65;;;6.95;;
3953;SDS011;1991;48.682;9.030;2022-08-19T14:14:48;7.90;;;7.10;;
3953;SDS011;1991;48.682;9.030;2022-08-19T14:17:14;7.40;;;6.60;;
3953;SDS011;1991;48.682;9.030;2022-08-19T14:19:40;7.72;;;7.03;;
3953;SDS011;1991;48.682;9.030;2022-08-19T14:22:07;9.57;;;6.97;;
3953;SDS011;1991;48.682;9.030;2022-08-19T14:24:33;8.18;;;7.38;;
3953;SDS011;1991;48.682;9.030;2022-08-19T14:26:59;7.18;;;6.57;;
3953;SDS011;1991;48.682;9.030;2022-08-19T14:29:25;9.65;;;6.97;;
3953;SDS011;1991;48.682;9.030;2022-08-19T14:31:53;6.75;;;6.22;;
3953;SDS011;1991;48.682;9.030;2022-08-19T14:34:21;8.35;;;7.22;;
3953;SDS011;1991;48.682;9.030;2022-08-19T14:36:47;8.65;;;7.43;;
3953;SDS011;1991;48.682;9.030;2022-08-19T14:39:13;7.75;;;7.00;;
3953;SDS011;1991;48.682;9.030;2022-08-19T14:41:39;8.25;;;6.70;;
3953;SDS011;1991;48.682;9.030;2022-08-19T14:44:06;11.68;;;6.85;;
3953;SDS011;1991;48.682;9.030;2022-08-19T14:46:31;8.45;;;6.90;;
3953;SDS011;1991;48.682;9.030;2022-08-19T14:48:57;7.35;;;6.65;;
3953;SDS011;1991;48.682;9.030;2022-08-19T14:51:24;7.15;;;6.43;;
3953;SDS011;1991;48.682;9.030;2022-08-19T14:53:53;8.50;;;6.90;;
3953;SDS011;1991;48.682;9.030;2022-08-19T14:56:20;7.78;;;6.68;;
3953;SDS011;1991;48.682;9.030;2022-08-19T14:58:48;7.18;;;6.55;;
3953;SDS011;1991;48.682;9.030;2022-08-19T15:01:16;7.88;;;6.45;;
3953;SDS011;1991;48.682;9.030;2022-08-19T15:03:44;8.02;;;7.22;;
3953;SDS011;1991;48.682;9.030;2022-08-19T15:06:12;12.60;;;7.53;;
3953;SDS011;1991;48.682;9.030;2022-08-19T15:08:38;7.90;;;7.22;;
3953;SDS011;1991;48.682;9.030;2022-08-19T15:11:09;8.68;;;7.00;;
3953;SDS011;1991;48.682;9.030;2022-08-19T15:13:38;7.50;;;6.57;;
3953;SDS011;1991;48.682;9.030;2022-08-19T15:16:04;6.95;;;6.20;;